createdAt,value
2023-03-15T00:02:29.484Z,4.50
2023-03-15T00:05:04.730Z,5.90
2023-03-15T00:07:52.574Z,7.70
2023-03-15T00:10:27.664Z,7.30
2023-03-15T00:13:15.520Z,8.20
2023-03-15T00:15:55.661Z,8.10
2023-03-15T00:18:43.527Z,7.90
2023-03-15T00:21:25.507Z,8.40
2023-03-15T00:24:13.518Z,6.70
2023-03-15T00:26:55.525Z,6.30
2023-03-15T00:29:50.533Z,7.20
2023-03-15T00:32:38.548Z,4.80
2023-03-15T00:35:20.526Z,4.50
2023-03-15T00:38:08.542Z,4.30
2023-03-15T00:40:44.637Z,6.40
2023-03-15T00:43:32.540Z,2.80
2023-03-15T00:46:14.547Z,3.90
2023-03-15T00:49:09.555Z,3.20
2023-03-15T00:52:04.516Z,3.10
2023-03-15T00:55:05.530Z,2.30
2023-03-15T00:57:47.299Z,3.50
2023-03-15T01:00:37.509Z,2.30
2023-03-15T01:03:18.541Z,2.30
2023-03-15T01:05:59.702Z,2.70
2023-03-15T01:08:41.603Z,1.60
2023-03-15T01:11:25.654Z,3.20
2023-03-15T01:14:07.521Z,3.60
2023-03-15T01:16:48.671Z,2.50
2023-03-15T01:19:29.512Z,4.10
2023-03-15T01:22:17.624Z,3.60
2023-03-15T01:25:12.627Z,7.80
2023-03-15T01:28:00.564Z,5.60
2023-03-15T01:30:35.701Z,2.10
2023-03-15T01:33:23.509Z,8.70
2023-03-15T01:36:21.515Z,3.50
2023-03-15T01:42:11.511Z,1.80
2023-03-15T01:45:06.617Z,1.20
2023-03-15T01:47:49.534Z,2.10
2023-03-15T01:50:37.573Z,3.40
2023-03-15T01:53:19.504Z,4.90
2023-03-15T01:56:14.520Z,2.20
2023-03-15T01:59:04.512Z,2.10
2023-03-15T02:01:46.531Z,2.90
2023-03-15T02:04:49.507Z,2.80
2023-03-15T02:07:41.517Z,4.40
2023-03-15T02:10:21.695Z,4.00
2023-03-15T02:13:09.526Z,1.90
2023-03-15T02:15:46.997Z,2.30
2023-03-15T02:18:34.505Z,1.80
2023-03-15T02:21:24.645Z,1.60
2023-03-15T02:24:33.513Z,5.00
2023-03-15T02:27:21.561Z,1.50
2023-03-15T02:30:02.616Z,1.40
2023-03-15T02:32:43.732Z,1.70
2023-03-15T02:35:34.619Z,1.90
2023-03-15T02:38:22.660Z,0.90
2023-03-15T02:40:58.593Z,2.30
2023-03-15T02:43:46.557Z,2.60
2023-03-15T02:46:21.116Z,1.40
2023-03-15T02:49:09.630Z,2.10
2023-03-15T02:51:45.148Z,1.40
2023-03-15T02:54:33.516Z,2.70
2023-03-15T02:57:30.490Z,2.00
2023-03-15T03:00:20.544Z,2.10
2023-03-15T03:02:55.629Z,2.60
2023-03-15T03:05:43.522Z,1.80
2023-03-15T03:08:18.637Z,4.30
2023-03-15T03:11:06.498Z,4.60
2023-03-15T03:13:40.831Z,3.20
2023-03-15T03:16:29.523Z,3.80
2023-03-15T03:19:04.734Z,2.20
2023-03-15T03:21:52.494Z,2.70
2023-03-15T03:24:34.499Z,3.50
2023-03-15T03:27:29.506Z,1.80
2023-03-15T03:30:20.482Z,2.70
2023-03-15T03:33:01.581Z,2.30
2023-03-15T03:35:56.537Z,3.10
2023-03-15T03:38:44.495Z,1.50
2023-03-15T03:41:28.491Z,2.50
2023-03-15T03:44:23.523Z,4.00
2023-03-15T03:47:11.501Z,4.30
2023-03-15T03:49:52.695Z,3.50
2023-03-15T03:52:34.491Z,5.30
2023-03-15T03:55:32.559Z,3.10
2023-03-15T03:58:27.560Z,3.80
2023-03-15T04:01:15.497Z,4.70
2023-03-15T04:03:51.556Z,3.80
2023-03-15T04:06:39.492Z,4.20
2023-03-15T04:09:21.488Z,8.10
2023-03-15T04:12:09.623Z,3.80
2023-03-15T04:14:50.476Z,6.10
2023-03-15T04:17:31.501Z,5.00
2023-03-15T04:20:13.179Z,6.10
2023-03-15T04:23:01.472Z,3.40
2023-03-15T04:25:36.624Z,5.00
2023-03-15T04:28:25.502Z,6.30
2023-03-15T04:31:00.684Z,4.40
2023-03-15T04:33:48.491Z,4.70
2023-03-15T04:36:23.948Z,4.90
2023-03-15T04:39:12.522Z,6.20
2023-03-15T04:41:47.605Z,7.30
2023-03-15T04:44:35.490Z,5.30
2023-03-15T04:47:10.616Z,5.00
2023-03-15T04:49:58.505Z,8.70
2023-03-15T04:52:40.496Z,5.60
2023-03-15T04:55:35.479Z,2.50
2023-03-15T04:58:24.500Z,4.80
2023-03-15T05:01:07.498Z,6.20
2023-03-15T05:04:02.487Z,5.80
2023-03-15T05:06:50.475Z,2.90
2023-03-15T05:09:24.636Z,7.10
2023-03-15T05:12:13.490Z,25.50
2023-03-15T05:14:48.613Z,8.30
2023-03-15T05:17:36.479Z,18.30
2023-03-15T05:20:20.932Z,16.70
2023-03-15T05:23:02.495Z,10.30
2023-03-15T05:25:43.741Z,4.20
2023-03-15T05:28:25.504Z,5.20
2023-03-15T05:31:06.624Z,4.50
2023-03-15T05:33:53.491Z,5.40
2023-03-15T05:36:34.770Z,3.40
2023-03-15T05:39:16.583Z,12.00
2023-03-15T05:41:57.619Z,13.70
2023-03-15T05:44:38.508Z,5.20
2023-03-15T05:47:19.683Z,16.40
2023-03-15T05:50:00.493Z,4.80
2023-03-15T05:52:48.474Z,7.30
2023-03-15T05:55:36.491Z,6.90
2023-03-15T05:58:24.469Z,9.70
2023-03-15T06:01:01.611Z,6.40
2023-03-15T06:03:49.644Z,4.90
2023-03-15T06:06:33.583Z,7.80
2023-03-15T06:09:14.873Z,9.30
2023-03-15T06:12:02.465Z,11.50
2023-03-15T06:14:36.927Z,12.10
2023-03-15T06:17:24.468Z,6.10
2023-03-15T06:19:58.914Z,6.90
2023-03-15T06:22:46.473Z,10.80
2023-03-15T06:25:20.883Z,4.50
2023-03-15T06:28:08.472Z,11.70
2023-03-15T06:30:49.497Z,5.00
2023-03-15T06:33:31.709Z,6.70
2023-03-15T06:36:13.469Z,7.40
2023-03-15T06:38:54.765Z,5.80
2023-03-15T06:41:36.481Z,9.40
2023-03-15T06:44:17.601Z,4.50
2023-03-15T06:46:58.473Z,4.00
2023-03-15T06:49:46.524Z,6.80
2023-03-15T06:52:27.447Z,8.60
2023-03-15T06:55:25.465Z,5.00
2023-03-15T06:58:13.457Z,5.50
2023-03-15T07:00:49.744Z,4.20
2023-03-15T07:03:37.461Z,6.60
2023-03-15T07:06:12.611Z,6.40
2023-03-15T07:09:00.471Z,7.40
2023-03-15T07:11:35.577Z,5.70
2023-03-15T07:14:23.466Z,6.50
2023-03-15T07:16:57.592Z,5.50
2023-03-15T07:19:55.912Z,4.90
2023-03-15T07:22:38.486Z,6.40
2023-03-15T07:25:39.676Z,9.80
2023-03-15T07:28:33.468Z,9.70
2023-03-15T07:31:10.836Z,9.50
2023-03-15T07:33:58.466Z,7.40
2023-03-15T07:36:33.618Z,22.50
2023-03-15T07:39:21.485Z,15.20
2023-03-15T07:41:56.601Z,18.30
2023-03-15T07:44:44.526Z,16.50
2023-03-15T07:47:26.521Z,16.30
2023-03-15T07:50:22.451Z,9.00
2023-03-15T07:53:11.457Z,18.20
2023-03-15T07:55:46.580Z,10.30
2023-03-15T07:58:34.473Z,19.50
2023-03-15T08:01:09.608Z,16.30
2023-03-15T08:03:57.542Z,22.40
2023-03-15T08:06:39.043Z,11.80
2023-03-15T08:09:20.447Z,32.90
2023-03-15T08:12:01.741Z,15.10
2023-03-15T08:14:44.472Z,18.10
2023-03-15T08:18:05.274Z,13.40
2023-03-15T08:20:47.454Z,13.50
2023-03-15T08:23:36.480Z,10.30
2023-03-15T08:26:24.525Z,10.00
2023-03-15T08:29:06.461Z,8.90
2023-03-15T08:32:01.547Z,8.20
2023-03-15T08:34:49.462Z,12.30
2023-03-15T08:37:24.607Z,11.70
2023-03-15T08:40:17.460Z,8.80
2023-03-15T08:45:56.811Z,8.00
2023-03-15T08:48:40.537Z,7.10
2023-03-15T08:51:36.457Z,16.50
2023-03-15T08:54:32.485Z,10.70
2023-03-15T08:57:20.441Z,13.60
2023-03-15T08:59:54.629Z,13.60
2023-03-15T09:02:43.525Z,8.70
2023-03-15T09:05:18.694Z,5.90
2023-03-15T09:08:07.433Z,6.80
2023-03-15T09:10:48.450Z,4.30
2023-03-15T09:13:43.455Z,5.90
2023-03-15T09:16:38.464Z,5.30
2023-03-15T09:19:26.429Z,5.50
2023-03-15T09:22:16.420Z,8.70
2023-03-15T09:25:11.455Z,12.30
2023-03-15T09:27:53.445Z,12.60
2023-03-15T09:30:42.506Z,9.70
2023-03-15T09:33:17.594Z,11.70
2023-03-15T09:36:06.630Z,5.10
2023-03-15T09:38:48.453Z,11.20
2023-03-15T09:42:00.435Z,9.50
2023-03-15T09:44:52.445Z,11.70
2023-03-15T09:48:08.426Z,7.10
2023-03-15T09:51:07.475Z,3.90
2023-03-15T09:54:12.445Z,7.10
2023-03-15T09:57:04.457Z,7.20
2023-03-15T09:59:47.575Z,12.50
2023-03-15T10:02:37.444Z,10.90
2023-03-15T10:05:27.439Z,14.50
2023-03-15T10:08:22.442Z,15.10
2023-03-15T10:11:22.514Z,10.90
2023-03-15T10:14:29.454Z,5.50
2023-03-15T10:17:11.456Z,4.50
2023-03-15T10:20:08.442Z,6.10
2023-03-15T10:23:10.537Z,10.30
2023-03-15T10:25:46.492Z,8.00
2023-03-15T10:28:37.051Z,9.10
2023-03-15T10:31:22.294Z,8.50
2023-03-15T10:34:18.437Z,5.20
2023-03-15T10:37:13.440Z,4.40
2023-03-15T10:40:06.422Z,6.70
2023-03-15T10:42:41.574Z,5.10
2023-03-15T10:45:31.427Z,6.30
2023-03-15T10:48:05.579Z,9.80
2023-03-15T10:50:53.446Z,7.90
2023-03-15T10:53:28.666Z,5.10
2023-03-15T10:56:32.473Z,5.20
2023-03-15T10:59:12.854Z,4.40
2023-03-15T11:02:34.570Z,7.10
2023-03-15T11:05:29.661Z,11.60
2023-03-15T11:08:22.435Z,6.30
2023-03-15T11:11:12.419Z,10.00
2023-03-15T11:14:07.440Z,7.50
2023-03-15T11:16:42.595Z,8.30
2023-03-15T11:19:34.418Z,6.10
2023-03-15T11:22:09.790Z,4.80
2023-03-15T11:24:59.477Z,3.60
2023-03-15T11:27:35.584Z,11.10
2023-03-15T11:30:24.424Z,4.50
2023-03-15T11:32:59.633Z,5.40
2023-03-15T11:35:54.415Z,5.90
2023-03-15T11:38:44.201Z,5.20
2023-03-15T11:41:25.440Z,3.60
2023-03-15T11:44:32.551Z,4.00
2023-03-15T11:47:36.019Z,6.10
2023-03-15T11:50:23.606Z,3.30
2023-03-15T11:56:08.495Z,5.40
2023-03-15T11:59:22.446Z,5.00
2023-03-15T12:02:22.463Z,4.10
2023-03-15T12:05:03.898Z,3.40
2023-03-15T12:08:06.528Z,3.00
2023-03-15T12:10:57.535Z,4.50
2023-03-15T12:13:45.470Z,4.50
2023-03-15T12:16:27.559Z,3.60
2023-03-15T12:19:23.449Z,3.90
2023-03-15T12:22:10.436Z,3.40
2023-03-15T12:25:05.434Z,3.60
2023-03-15T12:27:59.421Z,5.10
2023-03-15T12:30:52.458Z,2.40
2023-03-15T12:33:58.552Z,5.70
2023-03-15T12:36:48.423Z,3.20
2023-03-15T12:39:22.586Z,6.00
2023-03-15T12:42:11.412Z,3.80
2023-03-15T12:44:57.438Z,5.10
2023-03-15T12:47:57.432Z,13.20
2023-03-15T12:50:59.405Z,10.00
2023-03-15T12:53:50.431Z,9.20
2023-03-15T12:56:32.409Z,4.80
2023-03-15T12:59:30.513Z,4.90
2023-03-15T13:02:14.424Z,3.80
2023-03-15T13:05:17.423Z,6.10
2023-03-15T13:08:02.554Z,4.70
2023-03-15T13:11:12.430Z,3.00
2023-03-15T13:14:15.424Z,4.70
2023-03-15T13:17:14.440Z,3.60
2023-03-15T13:20:35.477Z,2.50
2023-03-15T13:23:35.662Z,3.80
2023-03-15T13:26:23.422Z,3.80
2023-03-15T13:29:08.682Z,4.10
2023-03-15T13:32:28.749Z,5.10
2023-03-15T13:35:03.996Z,5.10
2023-03-15T13:37:51.451Z,2.30
2023-03-15T13:40:33.435Z,4.80
2023-03-15T13:43:28.438Z,4.20
2023-03-15T13:46:16.437Z,3.00
2023-03-15T13:48:53.576Z,4.70
2023-03-15T13:51:44.426Z,4.60
2023-03-15T13:54:26.442Z,7.40
2023-03-15T13:57:25.427Z,3.10
2023-03-15T14:00:25.423Z,4.90
2023-03-15T14:03:02.632Z,7.90
2023-03-15T14:05:55.561Z,4.30
2023-03-15T14:08:47.471Z,2.10
2023-03-15T14:11:53.007Z,2.70
2023-03-15T14:14:51.449Z,3.20
2023-03-15T14:17:40.416Z,4.30
2023-03-15T14:20:21.937Z,4.80
2023-03-15T14:23:10.438Z,4.60
2023-03-15T14:25:45.596Z,4.50
2023-03-15T14:28:33.467Z,6.00
2023-03-15T14:31:08.734Z,5.80
2023-03-15T14:34:02.432Z,6.00
2023-03-15T14:36:46.468Z,3.20
2023-03-15T14:39:48.424Z,5.40
2023-03-15T14:42:30.655Z,5.10
2023-03-15T14:45:26.680Z,2.50
2023-03-15T14:48:25.440Z,4.20
2023-03-15T14:51:01.613Z,4.80
2023-03-15T14:53:50.407Z,5.30
2023-03-15T14:56:25.611Z,18.90
2023-03-15T14:59:19.428Z,40.30
2023-03-15T15:02:01.877Z,55.60
2023-03-15T15:04:50.418Z,17.20
2023-03-15T15:07:32.574Z,5.40
2023-03-15T15:10:13.921Z,5.90
2023-03-15T15:13:06.828Z,5.20
2023-03-15T15:15:54.704Z,5.40
2023-03-15T15:18:45.404Z,6.40
2023-03-15T15:21:33.798Z,12.70
2023-03-15T15:24:31.411Z,6.30
2023-03-15T15:27:05.844Z,3.70
2023-03-15T15:29:53.523Z,6.30
2023-03-15T15:32:28.907Z,5.10
2023-03-15T15:35:16.492Z,5.10
2023-03-15T15:37:52.205Z,3.40
2023-03-15T15:40:42.492Z,4.60
2023-03-15T15:43:17.147Z,4.10
2023-03-15T15:46:05.440Z,4.90
2023-03-15T15:48:42.041Z,4.50
2023-03-15T15:51:33.418Z,12.60
2023-03-15T15:54:17.180Z,7.40
2023-03-15T15:57:09.405Z,6.20
2023-03-15T15:59:43.806Z,8.40
2023-03-15T16:02:31.508Z,6.00
2023-03-15T16:05:08.374Z,6.90
2023-03-15T16:07:58.276Z,4.70
2023-03-15T16:10:37.557Z,3.70
2023-03-15T16:13:26.437Z,5.40
2023-03-15T16:16:08.525Z,2.90
2023-03-15T16:18:51.191Z,4.80
2023-03-15T16:21:40.415Z,5.20
2023-03-15T16:24:25.532Z,6.20
2023-03-15T16:27:08.437Z,5.80
2023-03-15T16:29:55.207Z,5.20
2023-03-15T16:32:44.481Z,8.00
2023-03-15T16:35:40.765Z,6.20
2023-03-15T16:38:18.749Z,4.60
2023-03-15T16:41:07.709Z,6.00
2023-03-15T16:43:43.132Z,8.50
2023-03-15T16:46:32.052Z,6.10
2023-03-15T16:49:08.479Z,9.50
2023-03-15T16:52:00.615Z,5.00
2023-03-15T16:54:51.393Z,5.70
2023-03-15T16:57:39.408Z,30.10
2023-03-15T17:00:21.531Z,34.10
2023-03-15T17:03:11.400Z,133.10
2023-03-15T17:05:54.464Z,228.30
2023-03-15T17:08:49.465Z,17.50
2023-03-15T17:11:38.707Z,11.60
2023-03-15T17:14:14.596Z,14.20
2023-03-15T17:17:02.423Z,13.00
2023-03-15T17:19:44.420Z,12.00
2023-03-15T17:22:39.400Z,15.40
2023-03-15T17:25:27.418Z,9.00
2023-03-15T17:28:02.520Z,13.50
2023-03-15T17:30:55.217Z,11.90
2023-03-15T17:33:41.541Z,17.30
2023-03-15T17:36:32.478Z,20.10
2023-03-15T17:39:07.559Z,14.10
2023-03-15T17:41:55.402Z,14.00
2023-03-15T17:44:38.438Z,24.60
2023-03-15T17:47:26.850Z,19.30
2023-03-15T17:50:07.553Z,24.00
2023-03-15T17:52:51.501Z,31.10
2023-03-15T17:55:46.404Z,21.20
2023-03-15T17:58:34.386Z,28.80
2023-03-15T18:01:10.115Z,23.20
2023-03-15T18:03:59.504Z,23.00
2023-03-15T18:06:34.519Z,12.80
2023-03-15T18:09:22.370Z,27.30
2023-03-15T18:12:03.612Z,26.00
2023-03-15T18:14:45.396Z,21.50
2023-03-15T18:17:26.754Z,27.70
2023-03-15T18:20:08.384Z,21.30
2023-03-15T18:22:49.559Z,18.10
2023-03-15T18:25:35.401Z,17.30
2023-03-15T18:30:58.906Z,16.90
2023-03-15T18:33:46.465Z,16.50
2023-03-15T18:36:24.708Z,16.90
2023-03-15T18:39:13.474Z,21.60
2023-03-15T18:41:47.802Z,48.90
2023-03-15T18:47:19.850Z,35.10
2023-03-15T18:50:09.927Z,35.90
2023-03-15T18:52:52.398Z,32.10
2023-03-15T18:55:42.725Z,30.50
2023-03-15T18:58:38.412Z,27.00
2023-03-15T19:01:29.610Z,19.80
2023-03-15T19:04:04.654Z,31.80
2023-03-15T19:06:52.751Z,35.60
2023-03-15T19:09:29.502Z,32.70
2023-03-15T19:12:18.382Z,33.60
2023-03-15T19:14:53.519Z,38.80
2023-03-15T19:17:41.381Z,39.60
2023-03-15T19:20:24.817Z,33.50
2023-03-15T19:23:06.523Z,33.80
2023-03-15T19:25:47.542Z,35.00
2023-03-15T19:28:29.368Z,45.90
2023-03-15T19:31:18.423Z,39.00
2023-03-15T19:33:53.225Z,26.70
2023-03-15T19:36:43.448Z,16.90
2023-03-15T19:39:19.300Z,25.10
2023-03-15T19:42:08.365Z,22.70
2023-03-15T19:44:43.856Z,17.50
2023-03-15T19:47:31.372Z,16.90
2023-03-15T19:50:13.660Z,21.00
2023-03-15T19:52:55.204Z,30.20
2023-03-15T19:55:37.359Z,29.50
2023-03-15T19:58:25.361Z,25.90
2023-03-15T20:01:01.757Z,24.20
2023-03-15T20:03:42.384Z,14.90
2023-03-15T20:06:31.373Z,18.80
2023-03-15T20:09:07.898Z,23.70
2023-03-15T20:11:55.360Z,26.50
2023-03-15T20:14:29.942Z,18.50
2023-03-15T20:17:19.376Z,18.40
2023-03-15T20:19:55.244Z,23.80
2023-03-15T20:22:47.677Z,31.20
2023-03-15T20:25:22.771Z,23.10
2023-03-15T20:28:11.372Z,32.40
2023-03-15T20:30:46.762Z,34.30
2023-03-15T20:33:34.564Z,35.70
2023-03-15T20:36:16.461Z,59.50
2023-03-15T20:38:57.488Z,34.10
2023-03-15T20:41:40.557Z,41.90
2023-03-15T20:44:22.506Z,99.60
2023-03-15T20:47:05.408Z,93.00
2023-03-15T20:49:53.393Z,31.80
2023-03-15T20:52:28.134Z,45.50
2023-03-15T20:55:16.376Z,56.70
2023-03-15T20:58:12.353Z,37.90
2023-03-15T21:01:09.446Z,39.60
2023-03-15T21:03:44.575Z,40.60
2023-03-15T21:06:32.361Z,43.00
2023-03-15T21:09:07.650Z,29.80
2023-03-15T21:11:59.175Z,35.30
2023-03-15T21:14:36.621Z,28.30
2023-03-15T21:17:24.348Z,28.50
2023-03-15T21:19:58.527Z,32.60
2023-03-15T21:22:46.368Z,30.10
2023-03-15T21:25:21.548Z,30.30
2023-03-15T21:28:11.652Z,29.40
2023-03-15T21:30:47.579Z,28.10
2023-03-15T21:33:36.336Z,25.60
2023-03-15T21:36:11.464Z,24.80
2023-03-15T21:38:59.340Z,30.80
2023-03-15T21:41:34.547Z,36.80
2023-03-15T21:44:23.352Z,34.90
2023-03-15T21:47:05.335Z,33.50
2023-03-15T21:50:00.333Z,30.10
2023-03-15T21:52:55.323Z,28.90
2023-03-15T21:55:53.325Z,29.00
2023-03-15T21:58:48.560Z,27.30
2023-03-15T22:01:36.449Z,30.60
2023-03-15T22:04:11.511Z,37.60
2023-03-15T22:06:59.328Z,42.60
2023-03-15T22:09:34.541Z,27.80
2023-03-15T22:12:26.279Z,34.80
2023-03-15T22:15:10.748Z,26.70
2023-03-15T22:17:58.455Z,35.60
2023-03-15T22:20:35.547Z,26.40
2023-03-15T22:23:27.091Z,34.80
2023-03-15T22:26:02.451Z,23.00
2023-03-15T22:28:50.339Z,27.90
2023-03-15T22:31:32.905Z,30.90
2023-03-15T22:34:20.337Z,31.50
2023-03-15T22:36:55.510Z,28.70
2023-03-15T22:39:44.039Z,27.80
2023-03-15T22:42:27.079Z,28.00
2023-03-15T22:45:17.427Z,25.60
2023-03-15T22:47:53.341Z,27.00
2023-03-15T22:50:43.124Z,22.80
2023-03-15T22:53:18.975Z,22.90
2023-03-15T22:56:15.077Z,28.00
2023-03-15T22:59:05.334Z,22.30
2023-03-15T23:01:40.599Z,25.50
2023-03-15T23:04:30.672Z,24.90
2023-03-15T23:07:06.543Z,27.50
2023-03-15T23:09:54.368Z,26.20
2023-03-15T23:12:35.833Z,23.00
2023-03-15T23:15:24.358Z,20.60
2023-03-15T23:18:06.544Z,19.30
2023-03-15T23:20:49.324Z,19.40
2023-03-15T23:23:37.547Z,17.70
2023-03-15T23:26:22.533Z,24.60
2023-03-15T23:29:10.648Z,15.10
2023-03-15T23:31:46.254Z,18.40
2023-03-15T23:34:34.318Z,18.20
2023-03-15T23:37:10.590Z,16.20
2023-03-15T23:40:00.325Z,11.70
2023-03-15T23:42:35.833Z,15.10
2023-03-15T23:45:24.334Z,12.00
2023-03-15T23:47:58.934Z,11.30
2023-03-15T23:50:47.316Z,13.40
2023-03-15T23:53:21.811Z,8.40
2023-03-15T23:56:09.329Z,16.80
2023-03-15T23:58:50.992Z,12.10
